createdAt,value
2019-06-01T00:07:30.352Z,20.97
2019-06-01T00:17:35.968Z,15.23
2019-06-01T00:27:43.196Z,17.10
2019-06-01T00:37:48.297Z,37.93
2019-06-01T00:47:56.797Z,20.10
2019-06-01T00:58:03.919Z,31.67
2019-06-01T01:08:09.421Z,30.43
2019-06-01T01:18:14.912Z,41.33
2019-06-01T01:28:20.079Z,57.27
2019-06-01T01:38:24.985Z,46.37
2019-06-01T01:48:29.971Z,50.17
2019-06-01T01:58:34.879Z,40.67
2019-06-01T02:08:41.268Z,41.33
2019-06-01T02:18:46.274Z,41.17
2019-06-01T02:28:51.166Z,38.73
2019-06-01T02:38:56.568Z,37.47
2019-06-01T02:49:02.155Z,35.67
2019-06-01T02:59:08.185Z,36.03
2019-06-01T03:09:14.557Z,42.93
2019-06-01T03:19:20.804Z,38.90
2019-06-01T03:29:26.816Z,36.80
2019-06-01T03:39:31.809Z,34.70
2019-06-01T03:49:36.696Z,48.00
2019-06-01T03:59:41.593Z,41.33
2019-06-01T04:09:46.528Z,35.43
2019-06-01T04:19:51.468Z,37.40
2019-06-01T04:29:57.533Z,39.17
2019-06-01T04:40:03.354Z,34.70
2019-06-01T04:50:09.302Z,44.43
2019-06-01T05:00:26.883Z,34.77
2019-06-01T05:10:22.611Z,36.00
2019-06-01T05:20:28.167Z,36.20
2019-06-01T05:30:33.709Z,43.03
2019-06-01T05:40:40.048Z,40.33
2019-06-01T05:50:45.220Z,36.20
2019-06-01T06:00:50.493Z,35.43
2019-06-01T06:10:56.095Z,30.33
2019-06-01T06:21:01.649Z,29.10
2019-06-01T06:31:06.790Z,29.03
2019-06-01T06:41:12.271Z,32.13
2019-06-01T06:51:17.882Z,32.20
2019-06-01T07:01:24.764Z,28.17
2019-06-01T07:11:31.498Z,27.13
2019-06-01T07:21:37.286Z,28.47
2019-06-01T07:31:42.951Z,23.70
2019-06-01T07:41:50.206Z,24.23
2019-06-01T07:51:57.141Z,20.33
2019-06-01T08:02:02.430Z,19.67
2019-06-01T08:12:08.716Z,10.53
2019-06-01T08:22:15.299Z,13.87
2019-06-01T08:32:20.529Z,11.83
2019-06-01T08:42:25.831Z,20.40
2019-06-01T08:52:32.221Z,15.70
2019-06-01T09:02:38.071Z,11.00
2019-06-01T09:12:45.159Z,14.30
2019-06-01T09:22:50.305Z,16.27
2019-06-01T09:32:55.432Z,16.87
2019-06-01T09:43:00.791Z,14.23
2019-06-01T09:53:06.399Z,14.40
2019-06-01T10:03:11.920Z,9.97
2019-06-01T10:13:16.993Z,9.80
2019-06-01T10:23:23.612Z,19.10
2019-06-01T10:33:30.656Z,16.67
2019-06-01T10:43:37.593Z,15.40
2019-06-01T10:53:43.800Z,8.73
2019-06-01T11:03:52.873Z,11.73
2019-06-01T11:14:00.515Z,15.10
2019-06-01T11:24:06.715Z,13.90
2019-06-01T11:34:12.190Z,9.87
2019-06-01T11:44:17.675Z,8.30
2019-06-01T11:54:24.490Z,8.60
2019-06-01T12:04:30.449Z,8.20
2019-06-01T12:14:36.302Z,7.93
2019-06-01T12:24:43.607Z,7.23
2019-06-01T12:34:50.240Z,34.20
2019-06-01T12:44:57.292Z,10.10
2019-06-01T12:55:07.051Z,7.43
2019-06-01T13:05:13.077Z,20.30
2019-06-01T13:15:18.556Z,8.87
2019-06-01T13:25:25.222Z,7.80
2019-06-01T13:35:32.893Z,9.93
2019-06-01T13:45:38.463Z,7.97
2019-06-01T13:55:46.036Z,8.47
2019-06-01T14:05:51.338Z,10.03
2019-06-01T14:15:56.259Z,4.20
2019-06-01T14:26:01.190Z,6.27
2019-06-01T14:36:06.094Z,4.83
2019-06-01T14:46:10.975Z,6.67
2019-06-01T14:56:18.433Z,5.57
2019-06-01T15:06:23.372Z,5.03
2019-06-01T15:16:28.318Z,5.93
2019-06-01T15:26:33.257Z,11.83
2019-06-01T15:36:38.291Z,6.53
2019-06-01T15:46:43.317Z,8.17
2019-06-01T15:56:48.417Z,8.03
2019-06-01T16:06:53.375Z,9.67
2019-06-01T16:17:00.704Z,9.03
2019-06-01T16:27:07.319Z,8.33
2019-06-01T16:37:12.331Z,12.90
2019-06-01T16:47:17.335Z,10.60
2019-06-01T16:57:22.379Z,7.10
2019-06-01T17:07:28.693Z,11.13
2019-06-01T17:17:33.766Z,9.57
2019-06-01T17:27:38.698Z,11.47
2019-06-01T17:37:43.644Z,23.10
2019-06-01T17:47:48.600Z,20.07
2019-06-01T17:57:53.613Z,20.97
2019-06-01T18:07:58.811Z,19.53
2019-06-01T18:18:04.502Z,16.53
2019-06-01T18:28:15.101Z,27.07
2019-06-01T18:38:16.235Z,27.60
2019-06-01T18:48:22.658Z,28.63
2019-06-01T18:58:27.690Z,34.80
2019-06-01T19:08:32.693Z,27.37
2019-06-01T19:18:37.731Z,62.33
2019-06-01T19:28:42.763Z,43.00
2019-06-01T19:38:47.821Z,42.97
2019-06-01T19:48:52.869Z,47.07
2019-06-01T19:58:57.778Z,43.23
2019-06-01T20:09:02.854Z,47.70
2019-06-01T20:19:09.616Z,98.97
2019-06-01T20:29:15.589Z,70.17
2019-06-01T20:39:20.755Z,68.73
2019-06-01T20:49:25.732Z,65.73
2019-06-01T20:59:31.360Z,69.30
2019-06-01T21:09:36.866Z,49.97
2019-06-01T21:19:44.052Z,50.80
2019-06-01T21:29:49.563Z,47.03
2019-06-01T21:39:55.141Z,40.77
2019-06-01T21:50:00.652Z,43.07
2019-06-01T22:00:09.256Z,44.90
2019-06-01T22:10:17.055Z,44.00
2019-06-01T22:20:24.021Z,35.53
2019-06-01T22:30:29.807Z,33.53
2019-06-01T22:40:34.952Z,47.20
2019-06-01T22:50:40.402Z,40.37
2019-06-01T23:00:47.682Z,28.50
2019-06-01T23:10:53.246Z,33.30
2019-06-01T23:20:58.835Z,31.33
2019-06-01T23:31:04.563Z,32.10
2019-06-01T23:41:10.178Z,38.07
2019-06-01T23:51:15.716Z,51.97
